sensor_id;sensor_type;location;lat;lon;timestamp;pressure;altitude;pressure_sealevel;temperature;humidity
59289;BME280;45056;47.602;9.886;2023-08-08T00:00:23;93266.22;;;12.57;61.33
59289;BME280;45056;47.602;9.886;2023-08-08T00:02:51;93274.09;;;12.54;61.44
59289;BME280;45056;47.602;9.886;2023-08-08T00:05:19;93266.34;;;12.53;61.31
59289;BME280;45056;47.602;9.886;2023-08-08T00:07:47;93271.94;;;12.49;61.44
59289;BME280;45056;47.602;9.886;2023-08-08T00:10:17;93265.84;;;12.45;61.47
59289;BME280;45056;47.602;9.886;2023-08-08T00:12:45;93257.03;;;12.41;61.53
59289;BME280;45056;47.602;9.886;2023-08-08T00:15:13;93255.66;;;12.36;61.64
59289;BME280;45056;47.602;9.886;2023-08-08T00:17:41;93257.59;;;12.36;61.83
59289;BME280;45056;47.602;9.886;2023-08-08T00:20:10;93254.56;;;12.34;61.95
59289;BME280;45056;47.602;9.886;2023-08-08T00:23:15;93253.94;;;12.30;62.00
59289;BME280;45056;47.602;9.886;2023-08-08T00:33:59;93240.66;;;12.19;62.43
59289;BME280;45056;47.602;9.886;2023-08-08T00:36:27;93234.88;;;12.17;62.04
59289;BME280;45056;47.602;9.886;2023-08-08T00:38:55;93236.53;;;12.14;62.01
59289;BME280;45056;47.602;9.886;2023-08-08T00:53:44;93235.91;;;12.10;61.75
59289;BME280;45056;47.602;9.886;2023-08-08T00:56:14;93230.75;;;12.12;61.61
59289;BME280;45056;47.602;9.886;2023-08-08T00:58:43;93222.56;;;12.12;61.42
59289;BME280;45056;47.602;9.886;2023-08-08T01:01:13;93228.81;;;12.12;61.46
59289;BME280;45056;47.602;9.886;2023-08-08T01:03:41;93228.81;;;12.12;61.62
59289;BME280;45056;47.602;9.886;2023-08-08T01:09:37;93236.53;;;12.14;61.58
59289;BME280;45056;47.602;9.886;2023-08-08T01:12:16;93228.34;;;12.14;61.62
59289;BME280;45056;47.602;9.886;2023-08-08T01:14:45;93228.34;;;12.14;61.35
59289;BME280;45056;47.602;9.886;2023-08-08T01:17:14;93229.88;;;12.15;61.61
59289;BME280;45056;47.602;9.886;2023-08-08T01:19:43;93232.59;;;12.15;61.62
59289;BME280;45056;47.602;9.886;2023-08-08T01:22:22;93231.38;;;12.16;61.62
59289;BME280;45056;47.602;9.886;2023-08-08T01:24:57;93229.88;;;12.15;61.63
59289;BME280;45056;47.602;9.886;2023-08-08T01:27:28;93227.16;;;12.15;61.37
59289;BME280;45056;47.602;9.886;2023-08-08T01:29:56;93226.41;;;12.15;61.54
59289;BME280;45056;47.602;9.886;2023-08-08T01:32:24;93229.56;;;12.13;61.42
59289;BME280;45056;47.602;9.886;2023-08-08T01:34:53;93229.25;;;12.11;61.43
59289;BME280;45056;47.602;9.886;2023-08-08T01:37:29;93233.19;;;12.10;61.48
59289;BME280;45056;47.602;9.886;2023-08-08T01:40:02;93230.59;;;12.06;61.44
59289;BME280;45056;47.602;9.886;2023-08-08T01:42:33;93223.72;;;12.02;61.61
59289;BME280;45056;47.602;9.886;2023-08-08T01:45:02;93218.38;;;11.98;61.85
59289;BME280;45056;47.602;9.886;2023-08-08T01:47:31;93226.22;;;11.96;61.69
59289;BME280;45056;47.602;9.886;2023-08-08T01:49:59;93215.00;;;11.94;61.92
59289;BME280;45056;47.602;9.886;2023-08-08T01:52:27;93214.25;;;11.93;62.05
59289;BME280;45056;47.602;9.886;2023-08-08T01:54:55;93208.50;;;11.91;62.14
59289;BME280;45056;47.602;9.886;2023-08-08T01:57:25;93205.44;;;11.89;62.27
59289;BME280;45056;47.602;9.886;2023-08-08T01:59:53;93215.56;;;11.89;62.15
59289;BME280;45056;47.602;9.886;2023-08-08T02:02:21;93212.09;;;11.88;62.30
59289;BME280;45056;47.602;9.886;2023-08-08T02:04:49;93211.78;;;11.86;62.23
59289;BME280;45056;47.602;9.886;2023-08-08T02:07:17;93210.25;;;11.85;62.12
59289;BME280;45056;47.602;9.886;2023-08-08T02:09:45;93214.16;;;11.84;62.13
59289;BME280;45056;47.602;9.886;2023-08-08T02:12:13;93212.66;;;11.83;62.02
59289;BME280;45056;47.602;9.886;2023-08-08T02:14:42;93217.78;;;11.81;61.95
59289;BME280;45056;47.602;9.886;2023-08-08T02:17:11;93213.53;;;11.80;62.12
59289;BME280;45056;47.602;9.886;2023-08-08T02:19:39;93203.09;;;11.78;62.07
59289;BME280;45056;47.602;9.886;2023-08-08T02:22:07;93198.84;;;11.77;61.89
59289;BME280;45056;47.602;9.886;2023-08-08T02:24:35;93193.38;;;11.77;62.04
59289;BME280;45056;47.602;9.886;2023-08-08T02:27:04;93187.47;;;11.79;61.79
59289;BME280;45056;47.602;9.886;2023-08-08T02:29:32;93187.47;;;11.79;61.83
59289;BME280;45056;47.602;9.886;2023-08-08T02:32:01;93183.22;;;11.78;61.76
59289;BME280;45056;47.602;9.886;2023-08-08T02:34:30;93181.28;;;11.78;61.68
59289;BME280;45056;47.602;9.886;2023-08-08T02:36:58;93178.56;;;11.78;61.67
59289;BME280;45056;47.602;9.886;2023-08-08T02:39:26;93182.81;;;11.79;61.57
59289;BME280;45056;47.602;9.886;2023-08-08T02:41:54;93187.06;;;11.80;61.41
59289;BME280;45056;47.602;9.886;2023-08-08T02:44:22;93189.47;;;11.78;61.38
59289;BME280;45056;47.602;9.886;2023-08-08T02:46:50;93195.81;;;11.75;61.70
59289;BME280;45056;47.602;9.886;2023-08-08T02:49:19;93191.56;;;11.74;61.64
59289;BME280;45056;47.602;9.886;2023-08-08T02:51:47;93194.28;;;11.74;61.70
59289;BME280;45056;47.602;9.886;2023-08-08T02:54:15;93191.97;;;11.73;61.69
59289;BME280;45056;47.602;9.886;2023-08-08T02:56:43;93202.56;;;11.71;61.78
59289;BME280;45056;47.602;9.886;2023-08-08T02:59:12;93194.38;;;11.71;61.69
59289;BME280;45056;47.602;9.886;2023-08-08T03:01:40;93198.31;;;11.69;61.63
59289;BME280;45056;47.602;9.886;2023-08-08T03:04:08;93191.66;;;11.71;61.60
59289;BME280;45056;47.602;9.886;2023-08-08T03:06:38;93192.88;;;11.69;61.51
59289;BME280;45056;47.602;9.886;2023-08-08T03:09:06;93198.31;;;11.69;61.48
59289;BME280;45056;47.602;9.886;2023-08-08T03:11:34;93201.47;;;11.68;61.38
59289;BME280;45056;47.602;9.886;2023-08-08T03:14:03;93201.47;;;11.68;61.23
59289;BME280;45056;47.602;9.886;2023-08-08T03:16:32;93200.72;;;11.67;61.43
59289;BME280;45056;47.602;9.886;2023-08-08T03:19:00;93201.16;;;11.66;61.40
59289;BME280;45056;47.602;9.886;2023-08-08T03:21:28;93198.44;;;11.66;61.29
59289;BME280;45056;47.602;9.886;2023-08-08T03:23:57;93196.91;;;11.65;61.39
59289;BME280;45056;47.602;9.886;2023-08-08T03:26:25;93202.38;;;11.65;61.63
59289;BME280;45056;47.602;9.886;2023-08-08T03:28:53;93204.34;;;11.64;61.50
59289;BME280;45056;47.602;9.886;2023-08-08T03:31:21;93203.25;;;11.62;61.51
59289;BME280;45056;47.602;9.886;2023-08-08T03:33:50;93199.78;;;11.61;61.55
59289;BME280;45056;47.602;9.886;2023-08-08T03:36:18;93200.97;;;11.60;61.35
59289;BME280;45056;47.602;9.886;2023-08-08T03:38:46;93198.25;;;11.60;61.44
59289;BME280;45056;47.602;9.886;2023-08-08T03:41:16;93201.88;;;11.57;61.39
59289;BME280;45056;47.602;9.886;2023-08-08T03:43:44;93198.81;;;11.55;61.34
59289;BME280;45056;47.602;9.886;2023-08-08T03:46:12;93194.53;;;11.54;61.18
59289;BME280;45056;47.602;9.886;2023-08-08T03:48:40;93203.50;;;11.54;61.24
59289;BME280;45056;47.602;9.886;2023-08-08T03:51:08;93208.16;;;11.54;61.16
59289;BME280;45056;47.602;9.886;2023-08-08T03:53:36;93195.75;;;11.53;61.24
59289;BME280;45056;47.602;9.886;2023-08-08T03:56:04;93199.69;;;11.52;61.21
59289;BME280;45056;47.602;9.886;2023-08-08T03:58:35;93196.22;;;11.51;61.27
59289;BME280;45056;47.602;9.886;2023-08-08T04:01:03;93194.69;;;11.50;61.25
59289;BME280;45056;47.602;9.886;2023-08-08T04:03:31;93195.88;;;11.49;61.26
59289;BME280;45056;47.602;9.886;2023-08-08T04:05:59;93196.63;;;11.50;61.07
59289;BME280;45056;47.602;9.886;2023-08-08T04:08:27;93197.84;;;11.49;61.18
59289;BME280;45056;47.602;9.886;2023-08-08T04:10:56;93195.88;;;11.49;61.00
59289;BME280;45056;47.602;9.886;2023-08-08T04:13:24;93194.78;;;11.47;60.85
59289;BME280;45056;47.602;9.886;2023-08-08T04:15:53;93198.28;;;11.47;61.16
59289;BME280;45056;47.602;9.886;2023-08-08T04:18:21;93208.75;;;11.49;61.08
59289;BME280;45056;47.602;9.886;2023-08-08T04:20:49;93214.19;;;11.49;61.03
59289;BME280;45056;47.602;9.886;2023-08-08T04:23:17;93212.97;;;11.50;60.96
59289;BME280;45056;47.602;9.886;2023-08-08T04:25:45;93213.44;;;11.48;60.99
59289;BME280;45056;47.602;9.886;2023-08-08T04:28:13;93215.84;;;11.46;60.90
59289;BME280;45056;47.602;9.886;2023-08-08T04:30:41;93220.53;;;11.46;61.09
59289;BME280;45056;47.602;9.886;2023-08-08T04:33:11;93209.63;;;11.46;60.91
59289;BME280;45056;47.602;9.886;2023-08-08T04:35:39;93208.88;;;11.45;60.79
59289;BME280;45056;47.602;9.886;2023-08-08T04:38:07;93218.56;;;11.46;60.86
59289;BME280;45056;47.602;9.886;2023-08-08T04:40:35;93204.94;;;11.46;60.71
59289;BME280;45056;47.602;9.886;2023-08-08T04:43:03;93206.91;;;11.46;60.97
59289;BME280;45056;47.602;9.886;2023-08-08T04:45:31;93207.66;;;11.46;60.81
59289;BME280;45056;47.602;9.886;2023-08-08T04:47:59;93211.47;;;11.49;60.91
59289;BME280;45056;47.602;9.886;2023-08-08T04:50:29;93208.31;;;11.50;60.89
59289;BME280;45056;47.602;9.886;2023-08-08T04:52:57;93214.50;;;11.51;60.85
59289;BME280;45056;47.602;9.886;2023-08-08T04:55:25;93206.34;;;11.51;60.66
59289;BME280;45056;47.602;9.886;2023-08-08T04:57:53;93215.91;;;11.55;60.78
59289;BME280;45056;47.602;9.886;2023-08-08T05:00:21;93215.50;;;11.57;60.64
59289;BME280;45056;47.602;9.886;2023-08-08T05:02:49;93218.06;;;11.61;60.36
59289;BME280;45056;47.602;9.886;2023-08-08T05:05:17;93225.81;;;11.62;60.11
59289;BME280;45056;47.602;9.886;2023-08-08T05:07:47;93221.75;;;11.67;60.17
59289;BME280;45056;47.602;9.886;2023-08-08T05:10:15;93220.44;;;11.72;60.05
59289;BME280;45056;47.602;9.886;2023-08-08T05:12:43;93221.06;;;11.76;59.90
59289;BME280;45056;47.602;9.886;2023-08-08T05:15:11;93228.25;;;11.82;60.07
59289;BME280;45056;47.602;9.886;2023-08-08T05:17:39;93215.47;;;11.92;59.56
59289;BME280;45056;47.602;9.886;2023-08-08T05:20:08;93215.91;;;12.13;59.18
59289;BME280;45056;47.602;9.886;2023-08-08T05:22:37;93223.69;;;12.78;57.35
59289;BME280;45056;47.602;9.886;2023-08-08T05:25:07;93214.81;;;14.11;54.24
59289;BME280;45056;47.602;9.886;2023-08-08T05:27:36;93221.41;;;15.92;50.20
59289;BME280;45056;47.602;9.886;2023-08-08T05:30:05;93215.28;;;17.53;46.32
59289;BME280;45056;47.602;9.886;2023-08-08T05:32:33;93222.03;;;18.14;43.50
59289;BME280;45056;47.602;9.886;2023-08-08T05:35:02;93222.56;;;17.97;44.06
59289;BME280;45056;47.602;9.886;2023-08-08T05:37:30;93223.53;;;17.53;44.94
59289;BME280;45056;47.602;9.886;2023-08-08T05:39:59;93234.00;;;16.98;45.93
59289;BME280;45056;47.602;9.886;2023-08-08T05:42:28;93225.38;;;16.45;46.97
59289;BME280;45056;47.602;9.886;2023-08-08T05:44:58;93225.13;;;16.04;47.79
59289;BME280;45056;47.602;9.886;2023-08-08T05:47:26;93222.66;;;15.66;48.47
59289;BME280;45056;47.602;9.886;2023-08-08T05:49:54;93234.44;;;15.33;49.36
59289;BME280;45056;47.602;9.886;2023-08-08T05:52:22;93227.25;;;15.02;50.08
59289;BME280;45056;47.602;9.886;2023-08-08T05:54:50;93230.41;;;14.76;50.70
59289;BME280;45056;47.602;9.886;2023-08-08T05:57:19;93225.56;;;14.52;51.37
59289;BME280;45056;47.602;9.886;2023-08-08T05:59:49;93232.28;;;14.33;51.90
59289;BME280;45056;47.602;9.886;2023-08-08T06:02:17;93231.41;;;14.17;52.63
59289;BME280;45056;47.602;9.886;2023-08-08T06:04:45;93227.59;;;14.05;53.02
59289;BME280;45056;47.602;9.886;2023-08-08T06:07:13;93223.38;;;13.95;53.54
59289;BME280;45056;47.602;9.886;2023-08-08T06:09:42;93233.06;;;13.87;53.71
59289;BME280;45056;47.602;9.886;2023-08-08T06:12:10;93228.97;;;13.82;54.14
59289;BME280;45056;47.602;9.886;2023-08-08T06:14:38;93230.34;;;13.77;54.43
59289;BME280;45056;47.602;9.886;2023-08-08T06:17:07;93227.91;;;13.70;54.45
59289;BME280;45056;47.602;9.886;2023-08-08T06:19:36;93225.78;;;13.65;54.55
59289;BME280;45056;47.602;9.886;2023-08-08T06:22:04;93224.69;;;13.62;54.99
59289;BME280;45056;47.602;9.886;2023-08-08T06:24:32;93224.41;;;13.60;55.04
59289;BME280;45056;47.602;9.886;2023-08-08T06:27:00;93229.13;;;13.60;55.15
59289;BME280;45056;47.602;9.886;2023-08-08T06:29:28;93225.31;;;13.57;55.13
59289;BME280;45056;47.602;9.886;2023-08-08T06:31:57;93223.78;;;13.56;55.53
59289;BME280;45056;47.602;9.886;2023-08-08T06:34:26;93215.59;;;13.56;55.44
59289;BME280;45056;47.602;9.886;2023-08-08T06:36:55;93216.34;;;13.56;55.60
59289;BME280;45056;47.602;9.886;2023-08-08T06:39:23;93215.28;;;13.63;55.45
59289;BME280;45056;47.602;9.886;2023-08-08T06:41:51;93214.69;;;13.68;55.36
59289;BME280;45056;47.602;9.886;2023-08-08T06:44:19;93218.19;;;13.78;55.38
59289;BME280;45056;47.602;9.886;2023-08-08T06:46:48;93223.66;;;13.88;55.05
59289;BME280;45056;47.602;9.886;2023-08-08T06:49:17;93227.16;;;13.97;54.91
59289;BME280;45056;47.602;9.886;2023-08-08T06:51:46;93217.44;;;14.06;54.60
59289;BME280;45056;47.602;9.886;2023-08-08T06:54:14;93210.13;;;14.12;54.46
59289;BME280;45056;47.602;9.886;2023-08-08T06:56:42;93221.97;;;14.18;54.10
59289;BME280;45056;47.602;9.886;2023-08-08T06:59:11;93223.78;;;14.21;53.81
59289;BME280;45056;47.602;9.886;2023-08-08T07:01:39;93226.53;;;14.21;53.61
59289;BME280;45056;47.602;9.886;2023-08-08T07:04:07;93226.69;;;14.27;53.46
59289;BME280;45056;47.602;9.886;2023-08-08T07:06:35;93216.31;;;14.31;53.78
59289;BME280;45056;47.602;9.886;2023-08-08T07:09:05;93213.41;;;14.35;53.45
59289;BME280;45056;47.602;9.886;2023-08-08T07:11:37;93219.66;;;14.35;53.26
59289;BME280;45056;47.602;9.886;2023-08-08T07:14:05;93215.25;;;14.38;53.57
59289;BME280;45056;47.602;9.886;2023-08-08T07:16:33;93216.59;;;14.42;53.36
59289;BME280;45056;47.602;9.886;2023-08-08T07:19:01;93219.19;;;14.46;53.29
59289;BME280;45056;47.602;9.886;2023-08-08T07:21:30;93206.25;;;14.47;53.05
59289;BME280;45056;47.602;9.886;2023-08-08T07:23:58;93205.50;;;14.46;52.69
59289;BME280;45056;47.602;9.886;2023-08-08T07:26:27;93204.72;;;14.46;52.54
59289;BME280;45056;47.602;9.886;2023-08-08T07:28:55;93201.25;;;14.45;52.36
59289;BME280;45056;47.602;9.886;2023-08-08T07:31:23;93202.16;;;14.42;52.83
59289;BME280;45056;47.602;9.886;2023-08-08T07:33:52;93199.13;;;14.40;52.93
59289;BME280;45056;47.602;9.886;2023-08-08T07:36:20;93195.03;;;14.35;53.12
59289;BME280;45056;47.602;9.886;2023-08-08T07:38:48;93188.50;;;14.33;53.42
59289;BME280;45056;47.602;9.886;2023-08-08T07:41:16;93190.00;;;14.34;53.74
59289;BME280;45056;47.602;9.886;2023-08-08T07:43:46;93198.06;;;14.37;54.08
59289;BME280;45056;47.602;9.886;2023-08-08T07:46:14;93191.66;;;14.40;53.88
59289;BME280;45056;47.602;9.886;2023-08-08T07:48:42;93190.28;;;14.45;54.31
59289;BME280;45056;47.602;9.886;2023-08-08T07:51:10;93197.88;;;14.50;54.06
59289;BME280;45056;47.602;9.886;2023-08-08T07:53:38;93187.81;;;14.56;54.01
59289;BME280;45056;47.602;9.886;2023-08-08T07:56:06;93199.38;;;14.61;54.07
59289;BME280;45056;47.602;9.886;2023-08-08T07:58:34;93186.59;;;14.67;54.05
59289;BME280;45056;47.602;9.886;2023-08-08T08:01:03;93194.50;;;14.74;53.87
59289;BME280;45056;47.602;9.886;2023-08-08T08:03:32;93187.47;;;14.82;54.22
59289;BME280;45056;47.602;9.886;2023-08-08T08:06:00;93191.38;;;14.91;54.56
59289;BME280;45056;47.602;9.886;2023-08-08T08:08:28;93184.34;;;14.99;54.70
59289;BME280;45056;47.602;9.886;2023-08-08T08:10:56;93177.75;;;15.06;54.62
59289;BME280;45056;47.602;9.886;2023-08-08T08:13:24;93178.63;;;15.12;54.80
59289;BME280;45056;47.602;9.886;2023-08-08T08:15:53;93173.28;;;15.18;55.06
59289;BME280;45056;47.602;9.886;2023-08-08T08:18:22;93172.63;;;15.23;55.04
59289;BME280;45056;47.602;9.886;2023-08-08T08:20:50;93170.47;;;15.27;55.22
59289;BME280;45056;47.602;9.886;2023-08-08T08:23:18;93167.13;;;15.32;55.07
59289;BME280;45056;47.602;9.886;2023-08-08T08:25:46;93166.47;;;15.37;55.17
59289;BME280;45056;47.602;9.886;2023-08-08T08:28:15;93180.75;;;15.41;55.54
59289;BME280;45056;47.602;9.886;2023-08-08T08:30:43;93178.13;;;15.47;54.47
59289;BME280;45056;47.602;9.886;2023-08-08T08:33:11;93181.25;;;15.55;52.93
59289;BME280;45056;47.602;9.886;2023-08-08T08:35:41;93177.34;;;15.71;52.75
59289;BME280;45056;47.602;9.886;2023-08-08T08:38:09;93165.38;;;15.83;52.17
59289;BME280;45056;47.602;9.886;2023-08-08T08:40:41;93169.00;;;15.90;50.44
59289;BME280;45056;47.602;9.886;2023-08-08T08:43:13;93163.34;;;15.93;49.78
59289;BME280;45056;47.602;9.886;2023-08-08T08:45:43;93166.38;;;15.95;49.24
59289;BME280;45056;47.602;9.886;2023-08-08T08:48:21;93159.16;;;15.98;49.26
59289;BME280;45056;47.602;9.886;2023-08-08T08:50:51;93159.00;;;16.01;49.47
59289;BME280;45056;47.602;9.886;2023-08-08T08:53:20;93162.31;;;16.06;49.16
59289;BME280;45056;47.602;9.886;2023-08-08T08:55:50;93162.88;;;16.10;48.55
59289;BME280;45056;47.602;9.886;2023-08-08T08:58:21;93156.16;;;16.11;48.46
59289;BME280;45056;47.602;9.886;2023-08-08T09:00:51;93163.63;;;16.10;48.15
59289;BME280;45056;47.602;9.886;2023-08-08T09:03:20;93150.38;;;16.09;48.21
59289;BME280;45056;47.602;9.886;2023-08-08T09:08:29;93158.59;;;16.09;48.09
59289;BME280;45056;47.602;9.886;2023-08-08T09:10:57;93163.16;;;16.12;48.35
59289;BME280;45056;47.602;9.886;2023-08-08T09:13:25;93163.44;;;16.14;47.75
59289;BME280;45056;47.602;9.886;2023-08-08T09:15:53;93159.47;;;16.15;47.17
59289;BME280;45056;47.602;9.886;2023-08-08T09:18:23;93164.00;;;16.18;47.67
59289;BME280;45056;47.602;9.886;2023-08-08T09:20:52;93165.06;;;16.21;47.57
59289;BME280;45056;47.602;9.886;2023-08-08T09:23:20;93157.38;;;16.25;47.55
59289;BME280;45056;47.602;9.886;2023-08-08T09:25:50;93166.19;;;16.29;47.23
59289;BME280;45056;47.602;9.886;2023-08-08T09:28:18;93158.22;;;16.31;47.00
59289;BME280;45056;47.602;9.886;2023-08-08T09:30:47;93169.03;;;16.35;46.73
59289;BME280;45056;47.602;9.886;2023-08-08T09:33:17;93168.84;;;16.38;46.67
59289;BME280;45056;47.602;9.886;2023-08-08T09:35:45;93167.63;;;16.39;46.15
59289;BME280;45056;47.602;9.886;2023-08-08T09:38:13;93157.66;;;16.42;45.87
59289;BME280;45056;47.602;9.886;2023-08-08T09:40:42;93160.22;;;16.46;46.19
59289;BME280;45056;47.602;9.886;2023-08-08T09:43:12;93166.28;;;16.50;46.53
59289;BME280;45056;47.602;9.886;2023-08-08T09:45:40;93163.81;;;16.52;46.36
59289;BME280;45056;47.602;9.886;2023-08-08T09:48:09;93164.09;;;16.54;45.75
59289;BME280;45056;47.602;9.886;2023-08-08T09:50:37;93156.91;;;16.56;45.99
59289;BME280;45056;47.602;9.886;2023-08-08T09:53:08;93151.69;;;16.58;45.33
59289;BME280;45056;47.602;9.886;2023-08-08T09:55:39;93152.94;;;16.57;45.53
59289;BME280;45056;47.602;9.886;2023-08-08T09:58:09;93146.22;;;16.58;45.50
59289;BME280;45056;47.602;9.886;2023-08-08T10:00:39;93148.75;;;16.62;45.82
59289;BME280;45056;47.602;9.886;2023-08-08T10:03:09;93156.81;;;16.66;45.82
59289;BME280;45056;47.602;9.886;2023-08-08T10:05:37;93152.16;;;16.72;46.25
59289;BME280;45056;47.602;9.886;2023-08-08T10:08:05;93152.69;;;16.76;45.52
59289;BME280;45056;47.602;9.886;2023-08-08T10:10:34;93149.78;;;16.80;45.27
59289;BME280;45056;47.602;9.886;2023-08-08T10:13:03;93149.88;;;16.85;45.62
59289;BME280;45056;47.602;9.886;2023-08-08T10:15:36;93155.41;;;16.91;45.03
59289;BME280;45056;47.602;9.886;2023-08-08T10:18:06;93149.25;;;16.96;44.97
59289;BME280;45056;47.602;9.886;2023-08-08T10:20:35;93153.63;;;17.03;45.40
59289;BME280;45056;47.602;9.886;2023-08-08T10:23:05;93144.69;;;17.08;45.56
59289;BME280;45056;47.602;9.886;2023-08-08T10:25:34;93153.50;;;17.12;44.39
59289;BME280;45056;47.602;9.886;2023-08-08T10:28:04;93155.50;;;17.12;44.16
59289;BME280;45056;47.602;9.886;2023-08-08T10:30:46;93154.53;;;17.15;44.94
59289;BME280;45056;47.602;9.886;2023-08-08T10:33:16;93157.84;;;17.19;44.60
59289;BME280;45056;47.602;9.886;2023-08-08T10:35:58;93154.91;;;17.23;44.78
59289;BME280;45056;47.602;9.886;2023-08-08T10:38:40;93160.72;;;17.30;44.77
59289;BME280;45056;47.602;9.886;2023-08-08T10:41:10;93151.03;;;17.35;44.71
59289;BME280;45056;47.602;9.886;2023-08-08T10:43:49;93153.38;;;17.42;45.41
59289;BME280;45056;47.602;9.886;2023-08-08T10:46:27;93152.72;;;17.48;45.82
59289;BME280;45056;47.602;9.886;2023-08-08T10:48:59;93153.25;;;17.52;45.39
59289;BME280;45056;47.602;9.886;2023-08-08T10:51:37;93155.31;;;17.57;44.67
59289;BME280;45056;47.602;9.886;2023-08-08T10:54:14;93150.91;;;17.65;45.12
59289;BME280;45056;47.602;9.886;2023-08-08T10:56:49;93146.50;;;17.73;44.77
59289;BME280;45056;47.602;9.886;2023-08-08T10:59:21;93144.59;;;17.80;45.40
59289;BME280;45056;47.602;9.886;2023-08-08T11:01:53;93153.66;;;17.86;45.15
59289;BME280;45056;47.602;9.886;2023-08-08T11:04:24;93149.94;;;17.89;44.74
59289;BME280;45056;47.602;9.886;2023-08-08T11:06:53;93143.72;;;17.94;45.34
59289;BME280;45056;47.602;9.886;2023-08-08T11:09:23;93153.59;;;18.01;44.67
59289;BME280;45056;47.602;9.886;2023-08-08T11:11:52;93149.63;;;18.08;43.97
59289;BME280;45056;47.602;9.886;2023-08-08T11:14:22;93146.47;;;18.15;43.73
59289;BME280;45056;47.602;9.886;2023-08-08T11:16:53;93138.03;;;18.24;43.53
59289;BME280;45056;47.602;9.886;2023-08-08T11:19:21;93136.63;;;18.35;43.46
59289;BME280;45056;47.602;9.886;2023-08-08T11:21:50;93132.22;;;18.49;43.98
59289;BME280;45056;47.602;9.886;2023-08-08T11:24:18;93134.84;;;18.64;43.30
59289;BME280;45056;47.602;9.886;2023-08-08T11:26:46;93140.47;;;18.75;43.52
59289;BME280;45056;47.602;9.886;2023-08-08T11:29:15;93135.53;;;18.91;43.73
59289;BME280;45056;47.602;9.886;2023-08-08T11:31:44;93130.88;;;19.02;42.53
59289;BME280;45056;47.602;9.886;2023-08-08T11:34:15;93131.41;;;19.07;42.29
59289;BME280;45056;47.602;9.886;2023-08-08T11:36:45;93134.66;;;19.05;42.01
59289;BME280;45056;47.602;9.886;2023-08-08T11:39:14;93142.44;;;19.07;42.71
59289;BME280;45056;47.602;9.886;2023-08-08T11:41:43;93131.66;;;19.09;42.41
59289;BME280;45056;47.602;9.886;2023-08-08T11:44:12;93132.44;;;19.15;42.53
59289;BME280;45056;47.602;9.886;2023-08-08T11:46:44;93131.22;;;19.22;42.52
59289;BME280;45056;47.602;9.886;2023-08-08T11:49:16;93132.06;;;19.34;42.88
59289;BME280;45056;47.602;9.886;2023-08-08T11:51:45;93127.56;;;19.42;42.89
59289;BME280;45056;47.602;9.886;2023-08-08T11:54:14;93125.84;;;19.44;42.57
59289;BME280;45056;47.602;9.886;2023-08-08T11:56:43;93112.56;;;19.49;42.28
59289;BME280;45056;47.602;9.886;2023-08-08T11:59:11;93101.56;;;19.60;41.82
59289;BME280;45056;47.602;9.886;2023-08-08T12:01:41;93107.88;;;19.66;42.33
59289;BME280;45056;47.602;9.886;2023-08-08T12:04:10;93108.84;;;19.69;42.58
59289;BME280;45056;47.602;9.886;2023-08-08T12:06:40;93112.88;;;19.68;42.41
59289;BME280;45056;47.602;9.886;2023-08-08T12:09:11;93103.09;;;19.67;42.20
59289;BME280;45056;47.602;9.886;2023-08-08T12:11:40;93102.34;;;19.66;42.03
59289;BME280;45056;47.602;9.886;2023-08-08T12:14:08;93115.38;;;19.66;41.65
59289;BME280;45056;47.602;9.886;2023-08-08T12:16:38;93107.88;;;19.66;41.63
59289;BME280;45056;47.602;9.886;2023-08-08T12:19:07;93110.88;;;19.68;42.19
59289;BME280;45056;47.602;9.886;2023-08-08T12:21:37;93104.59;;;19.68;42.63
59289;BME280;45056;47.602;9.886;2023-08-08T12:24:07;93100.84;;;19.77;44.49
59289;BME280;45056;47.602;9.886;2023-08-08T12:26:35;93100.88;;;19.88;42.93
59289;BME280;45056;47.602;9.886;2023-08-08T12:29:04;93098.94;;;20.00;43.19
59289;BME280;45056;47.602;9.886;2023-08-08T12:31:32;93096.44;;;20.13;43.64
59289;BME280;45056;47.602;9.886;2023-08-08T12:34:01;93105.47;;;20.25;42.62
59289;BME280;45056;47.602;9.886;2023-08-08T12:36:29;93110.78;;;20.35;40.83
59289;BME280;45056;47.602;9.886;2023-08-08T12:38:59;93099.97;;;20.37;40.22
59289;BME280;45056;47.602;9.886;2023-08-08T12:41:27;93119.31;;;20.37;40.18
59289;BME280;45056;47.602;9.886;2023-08-08T12:43:56;93107.50;;;20.36;40.49
59289;BME280;45056;47.602;9.886;2023-08-08T12:46:24;93114.28;;;20.29;41.32
59289;BME280;45056;47.602;9.886;2023-08-08T12:48:52;93121.06;;;20.28;41.87
59289;BME280;45056;47.602;9.886;2023-08-08T12:51:20;93113.03;;;20.30;41.46
59289;BME280;45056;47.602;9.886;2023-08-08T12:53:49;93110.28;;;20.30;41.59
59289;BME280;45056;47.602;9.886;2023-08-08T12:56:19;93115.78;;;20.36;41.01
59289;BME280;45056;47.602;9.886;2023-08-08T12:58:47;93112.03;;;20.39;41.14
59289;BME280;45056;47.602;9.886;2023-08-08T13:01:16;93108.53;;;20.39;41.50
59289;BME280;45056;47.602;9.886;2023-08-08T13:03:44;93104.75;;;20.42;42.00
59289;BME280;45056;47.602;9.886;2023-08-08T13:06:13;93098.47;;;20.47;40.18
59289;BME280;45056;47.602;9.886;2023-08-08T13:08:41;93109.28;;;20.51;39.42
59289;BME280;45056;47.602;9.886;2023-08-08T13:11:09;93107.00;;;20.49;39.36
59289;BME280;45056;47.602;9.886;2023-08-08T13:13:38;93098.47;;;20.47;39.51
59289;BME280;45056;47.602;9.886;2023-08-08T13:16:06;93105.75;;;20.50;39.71
59289;BME280;45056;47.602;9.886;2023-08-08T13:18:34;93094.19;;;20.57;41.42
59289;BME280;45056;47.602;9.886;2023-08-08T13:21:03;93096.44;;;20.70;41.69
59289;BME280;45056;47.602;9.886;2023-08-08T13:23:31;93099.97;;;20.82;40.08
59289;BME280;45056;47.602;9.886;2023-08-08T13:25:59;93102.50;;;20.92;40.20
59289;BME280;45056;47.602;9.886;2023-08-08T13:28:27;93095.19;;;21.00;40.88
59289;BME280;45056;47.602;9.886;2023-08-08T13:30:57;93095.66;;;21.10;40.26
59289;BME280;45056;47.602;9.886;2023-08-08T13:33:25;93088.59;;;21.14;39.58
59289;BME280;45056;47.602;9.886;2023-08-08T13:35:56;93100.16;;;21.18;39.75